createdAt,value
2019-02-10T00:00:36.859Z,8.50
2019-02-10T00:03:07.985Z,8.50
2019-02-10T00:05:39.461Z,8.60
2019-02-10T00:08:10.810Z,8.50
2019-02-10T00:10:42.255Z,8.50
2019-02-10T00:13:25.690Z,8.50
2019-02-10T00:15:58.272Z,8.50
2019-02-10T00:18:29.374Z,8.60
2019-02-10T00:21:00.796Z,8.50
2019-02-10T00:23:32.196Z,8.50
2019-02-10T00:26:03.552Z,8.50
2019-02-10T00:28:35.403Z,8.50
2019-02-10T00:31:06.811Z,8.50
2019-02-10T00:33:39.795Z,8.50
2019-02-10T00:36:11.235Z,8.50
2019-02-10T00:38:43.872Z,8.50
2019-02-10T00:41:15.446Z,8.50
2019-02-10T00:43:46.803Z,8.50
2019-02-10T00:46:18.143Z,8.50
2019-02-10T00:48:49.487Z,8.50
2019-02-10T00:51:22.156Z,8.60
2019-02-10T00:53:53.691Z,8.60
2019-02-10T00:56:25.482Z,8.60
2019-02-10T00:58:56.854Z,8.60
2019-02-10T01:01:28.133Z,8.60
2019-02-10T01:03:59.198Z,8.60
2019-02-10T01:06:30.622Z,8.60
2019-02-10T01:09:02.224Z,8.60
2019-02-10T01:11:33.603Z,8.70
2019-02-10T01:14:04.928Z,8.70
2019-02-10T01:16:36.313Z,8.70
2019-02-10T01:19:09.109Z,8.70
2019-02-10T01:21:42.205Z,8.70
2019-02-10T01:24:13.854Z,8.70
2019-02-10T01:26:45.480Z,8.80
2019-02-10T01:29:17.001Z,8.70
2019-02-10T01:31:48.034Z,8.70
2019-02-10T01:34:19.335Z,8.70
2019-02-10T01:36:50.811Z,8.70
2019-02-10T01:39:23.152Z,8.70
2019-02-10T01:41:55.899Z,8.70
2019-02-10T01:44:27.367Z,8.70
2019-02-10T01:46:58.791Z,8.70
2019-02-10T01:49:29.974Z,8.70
2019-02-10T01:52:02.594Z,8.70
2019-02-10T01:54:33.823Z,8.70
2019-02-10T01:57:05.391Z,8.70
2019-02-10T01:59:36.694Z,8.70
2019-02-10T02:02:08.131Z,8.70
2019-02-10T02:04:39.934Z,8.70
2019-02-10T02:07:11.307Z,8.80
2019-02-10T02:09:42.655Z,8.70
2019-02-10T02:12:13.962Z,8.70
2019-02-10T02:14:45.518Z,8.70
2019-02-10T02:17:17.110Z,8.70
2019-02-10T02:19:48.543Z,8.70
2019-02-10T02:22:21.423Z,8.70
2019-02-10T02:24:53.591Z,8.70
2019-02-10T02:27:25.147Z,8.60
2019-02-10T02:29:56.511Z,8.70
2019-02-10T02:32:27.853Z,8.60
2019-02-10T02:34:59.791Z,8.60
2019-02-10T02:37:31.411Z,8.60
2019-02-10T02:40:04.410Z,8.60
2019-02-10T02:42:36.098Z,8.60
2019-02-10T02:45:09.455Z,8.60
2019-02-10T02:47:41.131Z,8.60
2019-02-10T02:50:12.581Z,8.60
2019-02-10T02:52:44.322Z,8.50
2019-02-10T02:55:15.841Z,8.50
2019-02-10T02:57:47.151Z,8.50
2019-02-10T03:00:19.150Z,8.40
2019-02-10T03:02:50.567Z,8.40
2019-02-10T03:05:22.215Z,8.40
2019-02-10T03:07:53.699Z,8.50
2019-02-10T03:10:25.671Z,8.50
2019-02-10T03:12:57.184Z,8.40
2019-02-10T03:15:29.164Z,8.40
2019-02-10T03:18:00.577Z,8.40
2019-02-10T03:20:32.102Z,8.40
2019-02-10T03:23:03.584Z,8.40
2019-02-10T03:25:35.324Z,8.40
2019-02-10T03:28:06.832Z,8.50
2019-02-10T03:30:38.298Z,8.40
2019-02-10T03:33:09.882Z,8.40
2019-02-10T03:35:41.276Z,8.40
2019-02-10T03:38:12.680Z,8.40
2019-02-10T03:40:44.190Z,8.40
2019-02-10T03:43:15.847Z,8.40
2019-02-10T03:45:46.888Z,8.40
2019-02-10T03:48:18.397Z,8.40
2019-02-10T03:50:49.728Z,8.40
2019-02-10T03:53:20.879Z,8.40
2019-02-10T03:55:52.435Z,8.40
2019-02-10T03:58:24.118Z,8.40
2019-02-10T04:00:55.969Z,8.40
2019-02-10T04:03:27.318Z,8.40
2019-02-10T04:05:59.214Z,8.40
2019-02-10T04:08:30.883Z,8.40
2019-02-10T04:11:03.270Z,8.40
2019-02-10T04:13:38.188Z,8.40
2019-02-10T04:16:09.690Z,8.40
2019-02-10T04:18:43.119Z,8.30
2019-02-10T04:21:15.119Z,8.30
2019-02-10T04:23:47.702Z,8.30
2019-02-10T04:26:19.452Z,8.20
2019-02-10T04:28:51.246Z,8.20
2019-02-10T04:31:22.664Z,8.20
2019-02-10T04:33:54.729Z,8.20
2019-02-10T04:36:26.483Z,8.20
2019-02-10T04:39:00.014Z,8.20
2019-02-10T04:41:31.864Z,8.20
2019-02-10T04:44:03.921Z,8.20
2019-02-10T04:46:35.554Z,8.20
2019-02-10T04:49:07.934Z,8.20
2019-02-10T04:51:39.658Z,8.20
2019-02-10T04:54:11.486Z,8.10
2019-02-10T04:56:43.280Z,8.10
2019-02-10T04:59:15.116Z,8.10
2019-02-10T05:01:48.078Z,8.10
2019-02-10T05:04:20.339Z,8.10
2019-02-10T05:06:52.209Z,8.00
2019-02-10T05:09:23.704Z,8.00
2019-02-10T05:11:54.956Z,7.90
2019-02-10T05:14:26.374Z,7.90
2019-02-10T05:16:57.778Z,7.90
2019-02-10T05:19:29.366Z,7.80
2019-02-10T05:22:01.136Z,7.80
2019-02-10T05:24:33.143Z,7.80
2019-02-10T05:27:04.892Z,7.80
2019-02-10T05:29:36.765Z,7.80
2019-02-10T05:32:08.682Z,7.80
2019-02-10T05:34:40.578Z,7.80
2019-02-10T05:37:12.276Z,7.80
2019-02-10T05:39:44.599Z,7.80
2019-02-10T05:42:16.749Z,7.80
2019-02-10T05:44:48.461Z,7.80
2019-02-10T05:47:20.345Z,7.70
2019-02-10T05:49:52.072Z,7.70
2019-02-10T05:52:26.590Z,7.80
2019-02-10T05:54:59.057Z,7.70
2019-02-10T05:57:30.828Z,7.80
2019-02-10T06:00:02.315Z,7.80
2019-02-10T06:02:34.213Z,7.80
2019-02-10T06:05:32.923Z,7.70
2019-02-10T06:08:12.721Z,7.70
2019-02-10T06:10:38.034Z,7.70
2019-02-10T06:13:09.619Z,7.50
2019-02-10T06:15:40.846Z,7.40
2019-02-10T06:18:12.596Z,7.40
2019-02-10T06:20:43.906Z,7.50
2019-02-10T06:23:15.215Z,7.50
2019-02-10T06:25:48.061Z,7.50
2019-02-10T06:28:19.413Z,7.50
2019-02-10T06:30:51.024Z,7.50
2019-02-10T06:33:22.451Z,7.50
2019-02-10T06:35:54.156Z,7.50
2019-02-10T06:38:25.212Z,7.50
2019-02-10T06:40:56.360Z,7.60
2019-02-10T06:43:27.946Z,7.60
2019-02-10T06:45:59.733Z,7.70
2019-02-10T06:48:34.170Z,7.70
2019-02-10T06:51:06.183Z,7.60
2019-02-10T06:53:38.092Z,7.50
2019-02-10T06:56:10.436Z,7.50
2019-02-10T06:58:43.391Z,7.60
2019-02-10T07:01:43.378Z,7.60
2019-02-10T07:04:26.575Z,7.60
2019-02-10T07:06:58.339Z,7.70
2019-02-10T07:09:30.340Z,7.70
2019-02-10T07:12:39.620Z,7.80
2019-02-10T07:15:48.750Z,7.90
2019-02-10T07:19:13.845Z,8.00
2019-02-10T07:21:48.154Z,8.10
2019-02-10T07:24:45.721Z,8.20
2019-02-10T07:27:31.025Z,8.20
2019-02-10T07:30:38.626Z,8.30
2019-02-10T07:33:54.733Z,8.40
2019-02-10T07:37:22.999Z,8.40
2019-02-10T07:40:39.448Z,8.50
2019-02-10T07:44:10.339Z,8.60
2019-02-10T07:47:28.502Z,8.70
2019-02-10T07:50:48.248Z,8.80
2019-02-10T07:53:42.578Z,8.80
2019-02-10T07:57:01.913Z,8.90
2019-02-10T07:59:45.993Z,8.90
2019-02-10T08:03:11.351Z,8.90
2019-02-10T08:06:08.970Z,9.00
2019-02-10T08:09:10.573Z,9.00
2019-02-10T08:12:00.695Z,9.00
2019-02-10T08:15:02.543Z,9.10
2019-02-10T08:17:58.415Z,9.10
2019-02-10T08:20:53.771Z,9.10
2019-02-10T08:24:06.898Z,9.10
2019-02-10T08:27:13.159Z,9.10
2019-02-10T08:29:55.629Z,9.10
2019-02-10T08:32:37.519Z,9.20
2019-02-10T08:35:55.817Z,9.20
2019-02-10T08:39:09.358Z,9.30
2019-02-10T08:42:31.343Z,9.30
2019-02-10T08:45:50.185Z,9.30
2019-02-10T08:48:56.090Z,9.30
2019-02-10T08:51:57.120Z,9.40
2019-02-10T08:54:31.285Z,9.40
2019-02-10T08:57:06.456Z,9.50
2019-02-10T08:59:41.238Z,9.50
2019-02-10T09:02:15.783Z,9.50
2019-02-10T09:04:53.172Z,9.50
2019-02-10T09:07:24.680Z,9.60
2019-02-10T09:09:56.551Z,9.60
2019-02-10T09:12:29.289Z,9.60
2019-02-10T09:15:00.988Z,9.70
2019-02-10T09:17:32.918Z,9.70
2019-02-10T09:20:06.794Z,9.70
2019-02-10T09:22:38.605Z,9.70
2019-02-10T09:25:24.711Z,9.80
2019-02-10T09:28:07.872Z,9.80
2019-02-10T09:30:41.066Z,9.80
2019-02-10T09:33:13.611Z,9.90
2019-02-10T09:35:48.465Z,9.90
2019-02-10T09:38:20.175Z,9.90
2019-02-10T09:40:54.150Z,10.00
2019-02-10T09:43:38.465Z,10.00
2019-02-10T09:46:12.610Z,9.90
2019-02-10T09:48:46.029Z,9.90
2019-02-10T09:51:17.947Z,9.80
2019-02-10T09:53:50.963Z,9.80
2019-02-10T09:56:22.825Z,9.80
2019-02-10T09:58:54.660Z,9.70
2019-02-10T10:01:26.079Z,9.70
2019-02-10T10:04:00.898Z,9.70
2019-02-10T10:06:35.540Z,9.70
2019-02-10T10:09:18.979Z,9.60
2019-02-10T10:11:48.080Z,9.60
2019-02-10T10:14:30.523Z,9.60
2019-02-10T10:16:55.837Z,9.60
2019-02-10T10:19:36.142Z,9.60
2019-02-10T10:22:07.884Z,9.60
2019-02-10T10:24:50.183Z,9.60
2019-02-10T10:27:15.874Z,9.60
2019-02-10T10:29:50.168Z,9.50
2019-02-10T10:32:24.462Z,9.50
2019-02-10T10:34:59.998Z,9.40
2019-02-10T10:37:31.418Z,9.30
2019-02-10T10:40:03.031Z,9.20
2019-02-10T10:42:40.892Z,9.20
2019-02-10T10:45:12.915Z,9.20
2019-02-10T10:47:54.558Z,9.20
2019-02-10T10:50:26.409Z,9.20
2019-02-10T10:53:06.483Z,9.20
2019-02-10T10:55:39.992Z,9.20
2019-02-10T10:58:18.246Z,9.10
2019-02-10T11:00:52.187Z,9.10
2019-02-10T11:03:25.387Z,9.10
2019-02-10T11:05:58.519Z,9.00
2019-02-10T11:08:32.432Z,9.00
2019-02-10T11:11:04.563Z,9.10
2019-02-10T11:13:42.695Z,9.10
2019-02-10T11:16:14.487Z,9.30
2019-02-10T11:18:48.001Z,9.30
2019-02-10T11:21:19.718Z,9.40
2019-02-10T11:23:52.279Z,9.40
2019-02-10T11:26:27.620Z,9.40
2019-02-10T11:28:59.364Z,9.40
2019-02-10T11:31:34.076Z,9.30
2019-02-10T11:34:06.610Z,9.30
2019-02-10T11:36:38.509Z,9.20
2019-02-10T11:39:10.541Z,9.10
2019-02-10T11:41:42.746Z,9.10
2019-02-10T11:44:14.790Z,8.90
2019-02-10T11:46:46.661Z,8.80
2019-02-10T11:49:19.489Z,8.70
2019-02-10T11:52:01.836Z,8.60
2019-02-10T11:54:44.215Z,8.60
2019-02-10T11:57:21.434Z,8.50
2019-02-10T11:59:55.020Z,8.50
2019-02-10T12:02:38.311Z,8.60
2019-02-10T12:05:10.975Z,8.60
2019-02-10T12:07:49.944Z,8.60
2019-02-10T12:10:24.921Z,8.70
2019-02-10T12:12:58.413Z,8.70
2019-02-10T12:15:30.441Z,8.60
2019-02-10T12:18:06.804Z,8.40
2019-02-10T12:20:39.135Z,8.30
2019-02-10T12:23:14.683Z,8.30
2019-02-10T12:25:57.539Z,8.20
2019-02-10T12:28:43.980Z,8.10
2019-02-10T12:31:27.049Z,7.90
2019-02-10T12:34:03.224Z,7.70
2019-02-10T12:36:46.447Z,7.70
2019-02-10T12:39:36.544Z,7.70
2019-02-10T12:42:33.834Z,7.80
2019-02-10T12:53:29.629Z,7.70
2019-02-10T13:00:33.161Z,7.70
2019-02-10T13:03:23.784Z,7.70
2019-02-10T13:09:33.124Z,7.60
2019-02-10T13:12:04.919Z,7.50
2019-02-10T13:14:42.188Z,7.50
2019-02-10T13:17:17.252Z,7.40
2019-02-10T13:25:59.176Z,7.30
2019-02-10T13:28:30.535Z,7.30
2019-02-10T13:31:51.731Z,7.20
2019-02-10T13:34:21.967Z,7.20
2019-02-10T13:36:59.580Z,7.20
2019-02-10T13:39:33.888Z,7.20
2019-02-10T13:42:05.199Z,7.20
2019-02-10T13:44:37.060Z,7.20
2019-02-10T13:47:08.400Z,7.30
2019-02-10T13:49:40.699Z,7.30
2019-02-10T13:52:14.384Z,7.30
2019-02-10T13:54:47.939Z,7.30
2019-02-10T13:57:19.670Z,7.30
2019-02-10T13:59:51.030Z,7.30
2019-02-10T14:02:23.181Z,7.30
2019-02-10T14:04:54.686Z,7.30
2019-02-10T14:07:27.000Z,7.30
2019-02-10T14:09:59.081Z,7.30
2019-02-10T14:12:31.394Z,7.30
2019-02-10T14:15:02.985Z,7.30
2019-02-10T14:17:34.779Z,7.30
2019-02-10T14:20:07.129Z,7.30
2019-02-10T14:22:38.473Z,7.30
2019-02-10T14:25:11.059Z,7.30
2019-02-10T14:27:47.369Z,7.20
2019-02-10T14:30:24.045Z,7.20
2019-02-10T14:32:56.087Z,7.20
2019-02-10T14:35:27.553Z,7.20
2019-02-10T14:37:59.891Z,7.20
2019-02-10T14:40:42.805Z,7.20
2019-02-10T14:46:18.503Z,7.10
2019-02-10T14:51:56.752Z,7.10
2019-02-10T14:54:30.294Z,7.10
2019-02-10T14:57:05.881Z,7.10
2019-02-10T14:59:46.004Z,7.10
2019-02-10T15:02:22.723Z,7.10
2019-02-10T15:05:00.952Z,7.10
2019-02-10T15:11:12.227Z,7.10
2019-02-10T15:13:52.119Z,7.10
2019-02-10T15:16:29.179Z,7.10
2019-02-10T15:19:01.651Z,7.10
2019-02-10T15:21:34.669Z,7.10
2019-02-10T15:24:10.042Z,7.20
2019-02-10T15:26:41.973Z,7.20
2019-02-10T15:29:33.781Z,7.20
2019-02-10T15:32:16.879Z,7.20
2019-02-10T15:35:02.576Z,7.20
2019-02-10T15:37:59.943Z,7.20
2019-02-10T15:41:02.026Z,7.20
2019-02-10T15:44:55.423Z,7.10
2019-02-10T15:47:56.714Z,7.10
2019-02-10T15:54:18.843Z,7.10
2019-02-10T15:57:09.437Z,7.10
2019-02-10T15:59:55.533Z,7.10
2019-02-10T16:06:19.546Z,7.10
2019-02-10T16:16:39.740Z,6.90
2019-02-10T16:19:29.750Z,6.90
2019-02-10T16:25:31.266Z,6.70
2019-02-10T16:28:13.262Z,6.70
2019-02-10T16:31:37.467Z,6.60
2019-02-10T16:34:05.690Z,6.70
2019-02-10T16:36:39.206Z,6.60
2019-02-10T16:39:18.285Z,6.70
2019-02-10T16:41:50.936Z,6.80
2019-02-10T16:44:26.147Z,6.90
2019-02-10T16:46:57.295Z,6.90
2019-02-10T16:49:43.841Z,6.90
2019-02-10T16:52:15.525Z,6.90
2019-02-10T16:54:47.009Z,6.80
2019-02-10T16:57:18.711Z,6.80
2019-02-10T16:59:50.290Z,6.80
2019-02-10T17:02:24.300Z,6.80
2019-02-10T17:04:56.130Z,6.70
2019-02-10T17:07:27.709Z,6.60
2019-02-10T17:09:59.220Z,6.60
2019-02-10T17:12:30.916Z,6.60
2019-02-10T17:15:03.192Z,6.60
2019-02-10T17:17:34.455Z,6.40
2019-02-10T17:20:07.407Z,6.40
2019-02-10T17:22:39.954Z,6.40
2019-02-10T17:25:13.435Z,6.40
2019-02-10T17:27:45.293Z,6.40
2019-02-10T17:30:18.840Z,6.40
2019-02-10T17:32:56.599Z,6.30
2019-02-10T17:35:31.047Z,6.30
2019-02-10T17:38:02.544Z,6.30
2019-02-10T17:40:40.715Z,6.30
2019-02-10T17:43:12.593Z,6.30
2019-02-10T17:45:45.099Z,6.20
2019-02-10T17:48:17.261Z,6.20
2019-02-10T17:50:50.606Z,6.20
2019-02-10T17:53:22.662Z,6.10
2019-02-10T17:55:54.180Z,6.10
2019-02-10T17:58:25.419Z,6.10
2019-02-10T18:00:57.713Z,6.10
2019-02-10T18:03:29.286Z,6.00
2019-02-10T18:06:01.027Z,5.90
2019-02-10T18:08:32.575Z,5.80
2019-02-10T18:11:04.255Z,5.80
2019-02-10T18:13:36.872Z,5.80
2019-02-10T18:16:25.870Z,5.80
2019-02-10T18:19:08.582Z,5.70
2019-02-10T18:22:01.991Z,5.60
2019-02-10T18:24:48.571Z,5.50
2019-02-10T18:27:45.732Z,5.50
2019-02-10T18:30:26.680Z,5.50
2019-02-10T18:33:18.552Z,5.50
2019-02-10T18:36:06.712Z,5.50
2019-02-10T18:39:00.470Z,5.60
2019-02-10T18:41:50.432Z,5.60
2019-02-10T18:44:31.801Z,5.60
2019-02-10T18:47:19.172Z,5.50
2019-02-10T18:50:21.022Z,5.50
2019-02-10T18:53:08.207Z,5.50
2019-02-10T19:03:10.231Z,5.40
2019-02-10T19:06:25.145Z,5.30
2019-02-10T19:09:26.887Z,5.30
2019-02-10T19:12:15.133Z,5.20
2019-02-10T19:15:04.256Z,5.20
2019-02-10T19:17:55.821Z,5.20
2019-02-10T19:20:47.358Z,5.10
2019-02-10T19:23:39.587Z,5.20
2019-02-10T19:26:39.491Z,5.20
2019-02-10T19:29:25.586Z,5.20
2019-02-10T19:32:20.000Z,5.10
2019-02-10T19:35:10.526Z,5.10
2019-02-10T19:37:54.125Z,5.00
2019-02-10T19:40:50.518Z,5.00
2019-02-10T19:43:32.692Z,5.00
2019-02-10T19:47:09.540Z,5.00
2019-02-10T19:50:14.616Z,5.00
2019-02-10T19:53:03.568Z,5.00
2019-02-10T19:56:01.831Z,4.90
2019-02-10T19:59:05.136Z,4.90
2019-02-10T20:01:44.162Z,4.90
2019-02-10T20:04:35.105Z,4.90
2019-02-10T20:07:33.496Z,5.00
2019-02-10T20:10:32.842Z,5.00
2019-02-10T20:13:22.188Z,5.00
2019-02-10T20:16:12.712Z,5.00
2019-02-10T20:19:12.469Z,5.10
2019-02-10T20:21:58.234Z,5.10
2019-02-10T20:24:50.593Z,5.20
2019-02-10T20:27:45.604Z,5.20
2019-02-10T20:30:31.750Z,5.20
2019-02-10T20:33:26.794Z,5.20
2019-02-10T20:36:21.413Z,5.20
2019-02-10T20:39:05.780Z,5.20
2019-02-10T20:41:44.146Z,5.20
2019-02-10T20:44:33.268Z,5.20
2019-02-10T20:47:13.051Z,5.20
2019-02-10T20:49:52.143Z,5.10
2019-02-10T20:53:01.311Z,5.10
2019-02-10T20:55:50.797Z,5.10
2019-02-10T20:58:32.391Z,5.00
2019-02-10T21:01:20.534Z,5.00
2019-02-10T21:04:19.872Z,4.90
2019-02-10T21:06:57.498Z,4.90
2019-02-10T21:09:50.737Z,4.90
2019-02-10T21:12:41.371Z,4.90
2019-02-10T21:15:30.848Z,4.90
2019-02-10T21:18:20.301Z,5.00
2019-02-10T21:21:09.662Z,5.00
2019-02-10T21:24:06.192Z,5.00
2019-02-10T21:26:53.368Z,5.10
2019-02-10T21:29:35.953Z,5.00
2019-02-10T21:32:32.493Z,5.00
2019-02-10T21:35:15.739Z,5.00
2019-02-10T21:38:08.490Z,5.00
2019-02-10T21:41:10.893Z,5.10
2019-02-10T21:43:49.750Z,5.10
2019-02-10T21:46:31.810Z,5.10
2019-02-10T21:49:06.271Z,5.10
2019-02-10T21:51:38.729Z,5.10
2019-02-10T21:54:10.160Z,5.10
2019-02-10T21:56:41.841Z,5.10
2019-02-10T21:59:13.951Z,5.10
2019-02-10T22:01:46.275Z,5.10
2019-02-10T22:04:18.044Z,5.10
2019-02-10T22:06:49.920Z,5.10
2019-02-10T22:09:21.509Z,5.10
2019-02-10T22:11:53.138Z,5.10
2019-02-10T22:14:24.505Z,5.10
2019-02-10T22:16:56.104Z,5.20
2019-02-10T22:19:28.645Z,5.20
2019-02-10T22:22:00.315Z,5.20
2019-02-10T22:24:31.752Z,5.30
2019-02-10T22:27:03.331Z,5.30
2019-02-10T22:29:34.862Z,5.30
2019-02-10T22:32:07.211Z,5.30
2019-02-10T22:34:38.721Z,5.40
2019-02-10T22:37:12.003Z,5.40
2019-02-10T22:39:44.975Z,5.40
2019-02-10T22:42:16.283Z,5.40
2019-02-10T22:44:47.990Z,5.30
2019-02-10T22:47:19.623Z,5.40
2019-02-10T22:49:51.322Z,5.40
2019-02-10T22:52:23.124Z,5.40
2019-02-10T22:54:55.490Z,5.40
2019-02-10T22:57:27.192Z,5.50
2019-02-10T22:59:59.193Z,5.50
2019-02-10T23:02:31.186Z,5.50
2019-02-10T23:05:02.929Z,5.60
2019-02-10T23:07:34.657Z,5.60
2019-02-10T23:10:06.659Z,5.60
2019-02-10T23:12:38.324Z,5.70
2019-02-10T23:15:10.094Z,5.70
2019-02-10T23:17:51.292Z,5.70
2019-02-10T23:20:23.231Z,5.70
2019-02-10T23:22:54.824Z,5.70
2019-02-10T23:25:28.483Z,5.70
2019-02-10T23:28:01.140Z,5.70
2019-02-10T23:30:33.879Z,5.70
2019-02-10T23:33:05.977Z,5.60
2019-02-10T23:35:37.825Z,5.60
2019-02-10T23:38:09.609Z,5.60
2019-02-10T23:40:41.375Z,5.60
2019-02-10T23:43:12.897Z,5.60
2019-02-10T23:45:45.139Z,5.60
2019-02-10T23:48:16.396Z,5.60
2019-02-10T23:50:48.194Z,5.60
2019-02-10T23:53:19.503Z,5.60
2019-02-10T23:55:50.834Z,5.60
2019-02-10T23:58:22.831Z,5.60
